Terminal Aerodrome Forecast
Issued by NWS Chicago, IL

Home | Current Version | Previous Version | Text Only | Print | Product List | Glossary Off
Versions: 1 2 3 4 5 6 7 8 9 10 11 12 13 14 15 16 17 18 19 20 21 22 23 24 25 26 27 28 29 30 31 32 33 34

000
FTUS43 KLOT 270300 AAA
TAFRFD
TAF AMD
KRFD 270311Z 2703/2724 16007KT 3SM -FZDZ BR OVC005
      TEMPO 2703/2707 1 1/2SM -FZDZSN BR
     FM270700 13004KT 2SM -FZDZ BR OVC005
     FM271200 03005KT 4SM BR OVC006
     FM271600 05007KT P6SM OVC015
     FM272000 08005KT P6SM SCT030 BKN250=

USA.gov is the U.S. government's official web portal to all federal, state and local government web resources and services.